createdAt,value
2018-04-12T00:00:21.864Z,971.49
2018-04-12T00:01:22.052Z,971.52
2018-04-12T00:02:22.237Z,971.51
2018-04-12T00:03:22.424Z,971.44
2018-04-12T00:04:22.611Z,971.49
2018-04-12T00:05:22.797Z,971.46
2018-04-12T00:06:22.985Z,971.42
2018-04-12T00:07:23.170Z,971.41
2018-04-12T00:08:23.355Z,971.38
2018-04-12T00:09:23.543Z,971.37
2018-04-12T00:10:23.728Z,971.36
2018-04-12T00:11:23.913Z,971.32
2018-04-12T00:12:24.105Z,971.31
2018-04-12T00:13:24.287Z,971.28
2018-04-12T00:14:24.473Z,971.25
2018-04-12T00:15:24.660Z,971.24
2018-04-12T00:16:24.847Z,971.26
2018-04-12T00:17:25.035Z,971.27
2018-04-12T00:18:25.223Z,971.24
2018-04-12T00:19:25.409Z,971.21
2018-04-12T00:20:25.594Z,971.18
2018-04-12T00:21:25.782Z,971.24
2018-04-12T00:22:25.967Z,971.19
2018-04-12T00:23:26.153Z,971.17
2018-04-12T00:24:26.339Z,971.15
2018-04-12T00:25:26.527Z,971.13
2018-04-12T00:26:26.713Z,971.16
2018-04-12T00:27:26.899Z,971.11
2018-04-12T00:28:27.086Z,971.11
2018-04-12T00:29:27.272Z,971.06
2018-04-12T00:30:27.459Z,971.08
2018-04-12T00:31:27.645Z,971.03
2018-04-12T00:32:27.831Z,971.08
2018-04-12T00:33:28.021Z,971.00
2018-04-12T00:34:28.202Z,971.01
2018-04-12T00:35:28.388Z,970.99
2018-04-12T00:36:28.578Z,971.01
2018-04-12T00:37:28.761Z,970.90
2018-04-12T00:38:28.947Z,970.90
2018-04-12T00:39:29.135Z,970.90
2018-04-12T00:40:29.323Z,970.91
2018-04-12T00:41:29.512Z,970.91
2018-04-12T00:42:29.697Z,970.89
2018-04-12T00:43:29.883Z,970.89
2018-04-12T00:44:30.072Z,970.90
2018-04-12T00:45:30.257Z,970.90
2018-04-12T00:46:30.443Z,970.89
2018-04-12T00:47:30.631Z,970.85
2018-04-12T00:48:30.816Z,970.85
2018-04-12T00:49:31.004Z,970.82
2018-04-12T00:50:31.188Z,970.85
2018-04-12T00:51:31.375Z,970.79
2018-04-12T00:52:31.562Z,970.81
2018-04-12T00:53:31.748Z,970.83
2018-04-12T00:54:31.935Z,970.88
2018-04-12T00:55:32.121Z,970.85
2018-04-12T00:56:32.308Z,970.85
2018-04-12T00:57:32.494Z,970.81
2018-04-12T00:58:32.682Z,970.84
2018-04-12T00:59:32.869Z,970.87
2018-04-12T01:00:33.055Z,970.89
2018-04-12T01:01:33.243Z,970.90
2018-04-12T01:02:33.431Z,970.85
2018-04-12T01:03:33.618Z,970.85
2018-04-12T01:04:33.804Z,970.85
2018-04-12T01:05:33.991Z,970.85
2018-04-12T01:06:34.187Z,970.83
2018-04-12T01:07:34.367Z,970.84
2018-04-12T01:08:34.554Z,970.84
2018-04-12T01:09:34.741Z,970.82
2018-04-12T01:10:34.928Z,970.82
2018-04-12T01:11:35.115Z,970.78
2018-04-12T01:12:35.299Z,970.77
2018-04-12T01:13:35.487Z,970.77
2018-04-12T01:14:35.674Z,970.77
2018-04-12T01:15:35.859Z,970.78
2018-04-12T01:16:36.045Z,970.74
2018-04-12T01:17:36.232Z,970.78
2018-04-12T01:18:36.420Z,970.73
2018-04-12T01:19:36.607Z,970.74
2018-04-12T01:20:36.796Z,970.70
2018-04-12T01:21:36.982Z,970.75
2018-04-12T01:22:37.168Z,970.75
2018-04-12T01:23:37.356Z,970.75
2018-04-12T01:24:37.542Z,970.68
2018-04-12T01:25:37.731Z,970.70
2018-04-12T01:26:37.917Z,970.68
2018-04-12T01:27:38.102Z,970.68
2018-04-12T01:28:38.291Z,970.66
2018-04-12T01:29:38.478Z,970.66
2018-04-12T01:30:38.665Z,970.63
2018-04-12T01:31:38.854Z,970.63
2018-04-12T01:32:39.040Z,970.62
2018-04-12T01:33:39.227Z,970.63
2018-04-12T01:34:39.414Z,970.62
2018-04-12T01:35:39.600Z,970.63
2018-04-12T01:36:39.787Z,970.60
2018-04-12T01:37:39.973Z,970.59
2018-04-12T01:38:40.161Z,970.57
2018-04-12T01:39:40.348Z,970.52
2018-04-12T01:40:40.535Z,970.51
2018-04-12T01:41:40.723Z,970.51
2018-04-12T01:42:40.909Z,970.56
2018-04-12T01:43:41.095Z,970.55
2018-04-12T01:44:41.282Z,970.52
2018-04-12T01:45:41.468Z,970.60
2018-04-12T01:46:41.655Z,970.54
2018-04-12T01:47:41.841Z,970.48
2018-04-12T01:48:42.029Z,970.54
2018-04-12T01:49:42.215Z,970.48
2018-04-12T01:50:42.402Z,970.49
2018-04-12T01:51:42.589Z,970.47
2018-04-12T01:52:42.775Z,970.51
2018-04-12T01:53:42.963Z,970.47
2018-04-12T01:54:43.149Z,970.51
2018-04-12T01:55:43.337Z,970.54
2018-04-12T01:56:43.523Z,970.52
2018-04-12T01:57:43.709Z,970.48
2018-04-12T01:58:43.896Z,970.43
2018-04-12T01:59:44.081Z,970.44
2018-04-12T02:00:44.267Z,970.42
2018-04-12T02:01:44.458Z,970.44
2018-04-12T02:02:44.648Z,970.41
2018-04-12T02:03:44.829Z,970.36
2018-04-12T02:04:45.016Z,970.33
2018-04-12T02:05:45.203Z,970.28
2018-04-12T02:06:45.390Z,970.30
2018-04-12T02:07:45.576Z,970.30
2018-04-12T02:08:45.763Z,970.26
2018-04-12T02:09:45.951Z,970.31
2018-04-12T02:10:46.137Z,970.27
2018-04-12T02:11:46.325Z,970.25
2018-04-12T02:12:46.511Z,970.29
2018-04-12T02:13:46.700Z,970.27
2018-04-12T02:14:46.887Z,970.26
2018-04-12T02:15:47.074Z,970.24
2018-04-12T02:16:47.260Z,970.23
2018-04-12T02:17:47.447Z,970.24
2018-04-12T02:18:47.634Z,970.17
2018-04-12T02:19:47.824Z,970.20
2018-04-12T02:20:48.009Z,970.16
2018-04-12T02:21:48.197Z,970.10
2018-04-12T02:22:48.388Z,970.11
2018-04-12T02:23:48.571Z,970.05
2018-04-12T02:24:48.757Z,970.05
2018-04-12T02:25:48.944Z,970.06
2018-04-12T02:26:49.130Z,970.10
2018-04-12T02:27:49.317Z,970.06
2018-04-12T02:28:49.553Z,970.04
2018-04-12T02:29:49.691Z,970.03
2018-04-12T02:30:49.879Z,969.97
2018-04-12T02:31:50.064Z,970.04
2018-04-12T02:32:50.251Z,969.98
2018-04-12T02:33:50.439Z,969.98
2018-04-12T02:34:50.626Z,970.02
2018-04-12T02:35:50.813Z,969.98
2018-04-12T02:36:51.000Z,969.90
2018-04-12T02:37:51.186Z,969.94
2018-04-12T02:38:51.373Z,969.91
2018-04-12T02:39:51.559Z,969.90
2018-04-12T02:40:51.748Z,969.91
2018-04-12T02:41:51.933Z,969.92
2018-04-12T02:42:52.119Z,969.88
2018-04-12T02:43:52.306Z,969.87
2018-04-12T02:44:52.493Z,969.86
2018-04-12T02:45:52.686Z,969.84
2018-04-12T02:46:52.868Z,969.80
2018-04-12T02:47:53.056Z,969.79
2018-04-12T02:48:53.240Z,969.78
2018-04-12T02:49:53.427Z,969.76
2018-04-12T02:50:53.614Z,969.77
2018-04-12T02:51:53.801Z,969.76
2018-04-12T02:52:53.988Z,969.74
2018-04-12T02:53:54.174Z,969.76
2018-04-12T02:54:54.361Z,969.74
2018-04-12T02:55:54.548Z,969.76
2018-04-12T02:56:54.735Z,969.67
2018-04-12T02:57:54.925Z,969.74
2018-04-12T02:58:55.108Z,969.69
2018-04-12T02:59:55.295Z,969.69
2018-04-12T03:00:55.481Z,969.64
2018-04-12T03:01:55.669Z,969.62
2018-04-12T03:02:55.855Z,969.68
2018-04-12T03:03:56.041Z,969.70
2018-04-12T03:04:56.227Z,969.62
2018-04-12T03:05:56.414Z,969.71
2018-04-12T03:06:56.600Z,969.64
2018-04-12T03:07:56.787Z,969.64
2018-04-12T03:08:56.974Z,969.67
2018-04-12T03:09:57.162Z,969.64
2018-04-12T03:10:57.349Z,969.66
2018-04-12T03:11:57.536Z,969.74
2018-04-12T03:12:57.727Z,969.64
2018-04-12T03:13:57.909Z,969.61
2018-04-12T03:14:58.096Z,969.59
2018-04-12T03:15:58.284Z,969.59
2018-04-12T03:16:58.471Z,969.70
2018-04-12T03:17:58.662Z,969.61
2018-04-12T03:18:58.845Z,969.64
2018-04-12T03:19:59.033Z,969.64
2018-04-12T03:20:59.218Z,969.66
2018-04-12T03:21:59.402Z,969.52
2018-04-12T03:22:59.589Z,969.50
2018-04-12T03:23:59.782Z,969.56
2018-04-12T03:24:59.960Z,969.52
2018-04-12T03:26:00.150Z,969.55
2018-04-12T03:27:00.334Z,969.55
2018-04-12T03:28:00.520Z,969.47
2018-04-12T03:29:00.706Z,969.43
2018-04-12T03:30:00.893Z,969.47
2018-04-12T03:31:01.082Z,969.46
2018-04-12T03:32:01.271Z,969.41
2018-04-12T03:33:01.454Z,969.35
2018-04-12T03:34:01.647Z,969.35
2018-04-12T03:35:01.828Z,969.42
2018-04-12T03:36:02.015Z,969.31
2018-04-12T03:37:02.201Z,969.34
2018-04-12T03:38:02.389Z,969.34
2018-04-12T03:39:02.575Z,969.34
2018-04-12T03:40:02.764Z,969.35
2018-04-12T03:41:02.949Z,969.38
2018-04-12T03:42:03.135Z,969.38
2018-04-12T03:43:03.321Z,969.34
2018-04-12T03:44:03.507Z,969.34
2018-04-12T03:45:03.696Z,969.30
2018-04-12T03:46:03.881Z,969.35
2018-04-12T03:47:04.068Z,969.30
2018-04-12T03:48:04.256Z,969.29
2018-04-12T03:49:04.451Z,969.31
2018-04-12T03:50:04.637Z,969.29
2018-04-12T03:51:04.817Z,969.29
2018-04-12T03:52:05.003Z,969.27
2018-04-12T03:53:05.189Z,969.35
2018-04-12T03:54:05.375Z,969.31
2018-04-12T03:55:05.562Z,969.44
2018-04-12T03:56:05.749Z,969.24
2018-04-12T03:57:05.937Z,969.24
2018-04-12T03:58:06.372Z,969.29
2018-04-12T03:59:06.324Z,969.25
2018-04-12T04:00:06.494Z,969.30
2018-04-12T04:01:06.703Z,969.28
2018-04-12T04:02:06.888Z,969.33
2018-04-12T04:03:07.076Z,969.38
2018-04-12T04:04:07.261Z,969.29
2018-04-12T04:05:07.449Z,969.36
2018-04-12T04:06:07.635Z,969.36
2018-04-12T04:07:07.823Z,969.38
2018-04-12T04:08:08.009Z,969.35
2018-04-12T04:09:08.194Z,969.39
2018-04-12T04:10:08.381Z,969.45
2018-04-12T04:11:08.569Z,969.41
2018-04-12T04:12:08.757Z,969.49
2018-04-12T04:13:08.943Z,969.50
2018-04-12T04:14:09.130Z,969.46
2018-04-12T04:15:09.316Z,969.44
2018-04-12T04:16:09.502Z,969.42
2018-04-12T04:17:09.689Z,969.46
2018-04-12T04:18:09.876Z,969.42
2018-04-12T04:19:10.062Z,969.43
2018-04-12T04:20:10.251Z,969.40
2018-04-12T04:21:10.438Z,969.43
2018-04-12T04:22:10.622Z,969.35
2018-04-12T04:23:10.810Z,969.31
2018-04-12T04:24:11.001Z,969.33
2018-04-12T04:25:11.185Z,969.31
2018-04-12T04:26:11.372Z,969.32
2018-04-12T04:27:11.562Z,969.32
2018-04-12T04:28:11.753Z,969.35
2018-04-12T04:29:11.933Z,969.28
2018-04-12T04:30:12.120Z,969.37
2018-04-12T04:31:12.307Z,969.35
2018-04-12T04:32:12.494Z,969.35
2018-04-12T04:33:12.681Z,969.34
2018-04-12T04:34:12.867Z,969.32
2018-04-12T04:35:13.056Z,969.28
2018-04-12T04:36:13.241Z,969.21
2018-04-12T04:37:13.430Z,969.29
2018-04-12T04:38:13.616Z,969.29
2018-04-12T04:39:13.803Z,969.30
2018-04-12T04:40:13.989Z,969.24
2018-04-12T04:41:14.176Z,969.27
2018-04-12T04:42:14.363Z,969.23
2018-04-12T04:43:14.549Z,969.25
2018-04-12T04:44:14.737Z,969.27
2018-04-12T04:45:14.923Z,969.32
2018-04-12T04:46:15.110Z,969.30
2018-04-12T04:47:15.299Z,969.35
2018-04-12T04:48:15.501Z,969.38
2018-04-12T04:49:15.671Z,969.28
2018-04-12T04:50:15.864Z,969.29
2018-04-12T04:51:16.047Z,969.28
2018-04-12T04:52:16.232Z,969.33
2018-04-12T04:53:16.423Z,969.28
2018-04-12T04:54:16.608Z,969.28
2018-04-12T04:55:16.795Z,969.32
2018-04-12T04:56:16.982Z,969.29
2018-04-12T04:57:17.172Z,969.33
2018-04-12T04:58:17.356Z,969.28
2018-04-12T04:59:17.541Z,969.29
2018-04-12T05:00:17.727Z,969.30
2018-04-12T05:01:17.916Z,969.22
2018-04-12T05:02:18.102Z,969.24
2018-04-12T05:03:18.289Z,969.12
2018-04-12T05:04:18.478Z,969.23
2018-04-12T05:05:18.665Z,969.18
2018-04-12T05:06:18.853Z,969.18
2018-04-12T05:07:19.059Z,969.18
2018-04-12T05:08:19.235Z,969.14
2018-04-12T05:09:19.423Z,969.16
2018-04-12T05:10:19.608Z,969.14
2018-04-12T05:11:19.796Z,969.15
2018-04-12T05:12:19.984Z,969.17
2018-04-12T05:13:20.169Z,969.20
2018-04-12T05:14:20.356Z,969.16
2018-04-12T05:15:20.538Z,969.13
2018-04-12T05:16:20.723Z,969.13
2018-04-12T05:17:20.904Z,969.11
2018-04-12T05:18:21.094Z,969.10
2018-04-12T05:19:21.279Z,969.07
2018-04-12T05:20:21.467Z,969.07
2018-04-12T05:21:21.655Z,969.15
2018-04-12T05:22:21.843Z,969.13
2018-04-12T05:23:22.030Z,969.17
2018-04-12T05:24:22.216Z,969.17
2018-04-12T05:25:22.403Z,969.16
2018-04-12T05:26:22.591Z,969.19
2018-04-12T05:27:22.777Z,969.15
2018-04-12T05:28:22.966Z,969.13
2018-04-12T05:29:23.153Z,969.16
2018-04-12T05:30:23.341Z,969.18
2018-04-12T05:31:23.529Z,969.15
2018-04-12T05:32:23.720Z,969.09
2018-04-12T05:33:23.906Z,969.14
2018-04-12T05:34:24.093Z,969.14
2018-04-12T05:35:24.282Z,969.10
2018-04-12T05:36:24.470Z,969.12
2018-04-12T05:37:24.661Z,969.16
2018-04-12T05:38:24.853Z,969.15
2018-04-12T05:39:25.038Z,969.18
2018-04-12T05:40:25.228Z,969.12
2018-04-12T05:41:25.417Z,969.10
2018-04-12T05:42:25.608Z,969.14
2018-04-12T05:43:25.798Z,969.23
2018-04-12T05:44:25.984Z,969.24
2018-04-12T05:45:26.173Z,969.18
2018-04-12T05:46:26.388Z,969.25
2018-04-12T05:47:26.551Z,969.21
2018-04-12T05:48:26.739Z,969.22
2018-04-12T05:49:26.929Z,969.26
2018-04-12T05:50:27.118Z,969.27
2018-04-12T05:51:27.306Z,969.22
2018-04-12T05:52:27.497Z,969.30
2018-04-12T05:53:27.685Z,969.21
2018-04-12T05:54:27.876Z,969.17
2018-04-12T05:55:28.064Z,969.24
2018-04-12T05:56:28.252Z,969.29
2018-04-12T05:57:28.440Z,969.21
2018-04-12T05:58:28.629Z,969.16
2018-04-12T05:59:28.817Z,969.15
2018-04-12T06:00:29.006Z,969.12
2018-04-12T06:01:29.194Z,969.16
2018-04-12T06:02:29.383Z,969.20
2018-04-12T06:03:29.570Z,969.15
2018-04-12T06:04:29.757Z,969.20
2018-04-12T06:05:29.947Z,969.13
2018-04-12T06:06:30.137Z,969.09
2018-04-12T06:07:30.328Z,969.02
2018-04-12T06:08:30.518Z,969.02
2018-04-12T06:09:30.703Z,969.10
2018-04-12T06:10:30.895Z,969.12
2018-04-12T06:11:31.081Z,969.07
2018-04-12T06:12:31.271Z,969.11
2018-04-12T06:13:31.456Z,969.13
2018-04-12T06:14:31.643Z,969.13
2018-04-12T06:15:31.838Z,969.10
2018-04-12T06:16:32.022Z,969.14
2018-04-12T06:17:32.210Z,969.18
2018-04-12T06:18:32.403Z,969.09
2018-04-12T06:19:32.588Z,969.26
2018-04-12T06:20:32.776Z,969.18
2018-04-12T06:21:32.963Z,969.20
2018-04-12T06:22:33.159Z,969.20
2018-04-12T06:23:33.339Z,969.22
2018-04-12T06:24:33.526Z,969.19
2018-04-12T06:25:33.715Z,969.26
2018-04-12T06:26:33.902Z,969.21
2018-04-12T06:27:34.090Z,969.22
2018-04-12T06:28:34.278Z,969.25
2018-04-12T06:29:34.466Z,969.26
2018-04-12T06:30:34.654Z,969.20
2018-04-12T06:31:34.843Z,969.25
2018-04-12T06:32:35.035Z,969.21
2018-04-12T06:33:35.220Z,969.26
2018-04-12T06:34:35.410Z,969.25
2018-04-12T06:35:35.598Z,969.20
2018-04-12T06:36:35.786Z,969.21
2018-04-12T06:37:35.976Z,969.23
2018-04-12T06:38:36.164Z,969.23
2018-04-12T06:39:36.352Z,969.26
2018-04-12T06:40:36.539Z,969.22
2018-04-12T06:41:36.728Z,969.32
2018-04-12T06:42:36.917Z,969.24
2018-04-12T06:43:37.106Z,969.24
2018-04-12T06:44:37.294Z,969.21
2018-04-12T06:45:37.484Z,969.24
2018-04-12T06:46:37.673Z,969.38
2018-04-12T06:47:37.862Z,969.42
2018-04-12T06:48:38.050Z,969.40
2018-04-12T06:49:38.239Z,969.33
2018-04-12T06:50:38.427Z,969.30
2018-04-12T06:51:38.617Z,969.35
2018-04-12T06:52:38.805Z,969.31
2018-04-12T06:53:38.998Z,969.31
2018-04-12T06:54:39.183Z,969.31
2018-04-12T06:55:39.373Z,969.29
2018-04-12T06:56:39.566Z,969.31
2018-04-12T06:57:39.756Z,969.54
2018-04-12T06:58:39.943Z,969.54
2018-04-12T06:59:40.135Z,969.44
2018-04-12T07:00:40.326Z,969.48
2018-04-12T07:01:40.516Z,969.33
2018-04-12T07:02:40.705Z,969.47
2018-04-12T07:03:40.899Z,969.37
2018-04-12T07:04:41.089Z,969.47
2018-04-12T07:05:41.290Z,969.37
2018-04-12T07:06:41.473Z,969.45
2018-04-12T07:07:41.665Z,969.47
2018-04-12T07:08:41.857Z,969.50
2018-04-12T07:09:42.048Z,969.52
2018-04-12T07:10:42.239Z,969.42
2018-04-12T07:11:42.432Z,969.50
2018-04-12T07:12:42.623Z,969.71
2018-04-12T07:13:42.815Z,969.90
2018-04-12T07:14:43.008Z,969.74
2018-04-12T07:15:43.200Z,969.71
2018-04-12T07:16:43.392Z,969.68
2018-04-12T07:17:43.588Z,969.63
2018-04-12T07:18:43.779Z,969.71
2018-04-12T07:19:43.971Z,969.64
2018-04-12T07:20:44.165Z,969.64
2018-04-12T07:21:44.362Z,969.79
2018-04-12T07:22:44.555Z,969.78
2018-04-12T07:23:44.750Z,969.78
2018-04-12T07:24:44.945Z,969.80
2018-04-12T07:25:45.139Z,969.80
2018-04-12T07:26:45.339Z,969.76
2018-04-12T07:27:45.532Z,969.81
2018-04-12T07:28:45.728Z,969.82
2018-04-12T07:29:45.925Z,969.94
2018-04-12T07:30:46.122Z,969.86
2018-04-12T07:31:46.317Z,969.92
2018-04-12T07:32:46.515Z,970.05
2018-04-12T07:33:46.715Z,970.05
2018-04-12T07:34:46.911Z,970.11
2018-04-12T07:35:47.110Z,969.98
2018-04-12T07:36:47.307Z,970.14
2018-04-12T07:37:47.509Z,969.96
2018-04-12T07:38:47.706Z,970.21
2018-04-12T07:39:47.905Z,970.15
2018-04-12T07:40:48.104Z,970.18
2018-04-12T07:41:48.306Z,970.31
2018-04-12T07:42:48.504Z,970.16
2018-04-12T07:43:48.710Z,970.05
2018-04-12T07:44:48.904Z,970.07
2018-04-12T07:45:49.103Z,969.94
2018-04-12T07:46:49.305Z,969.99
2018-04-12T07:47:49.506Z,969.96
2018-04-12T07:48:49.706Z,969.94
2018-04-12T07:49:49.906Z,969.84
2018-04-12T07:50:50.106Z,969.55
2018-04-12T07:51:50.306Z,969.28
2018-04-12T07:52:50.507Z,969.34
2018-04-12T07:53:50.705Z,969.34
2018-04-12T07:54:50.903Z,969.66
2018-04-12T07:55:51.101Z,969.54
2018-04-12T07:56:51.298Z,969.61
2018-04-12T07:57:51.499Z,969.61
2018-04-12T07:58:51.694Z,969.67
2018-04-12T07:59:51.894Z,969.47
2018-04-12T08:00:52.089Z,969.42
2018-04-12T08:01:52.287Z,969.13
2018-04-12T08:02:52.484Z,969.20
2018-04-12T08:03:52.682Z,969.38
2018-04-12T08:04:52.879Z,969.45
2018-04-12T08:05:53.076Z,969.62
2018-04-12T08:06:53.277Z,969.58
2018-04-12T08:07:53.469Z,969.52
2018-04-12T08:08:53.667Z,969.58
2018-04-12T08:09:53.864Z,969.52
2018-04-12T08:10:54.059Z,969.49
2018-04-12T08:11:54.258Z,969.44
2018-04-12T08:12:54.455Z,969.30
2018-04-12T08:13:54.659Z,969.21
2018-04-12T08:14:54.851Z,969.33
2018-04-12T08:15:55.048Z,969.27
2018-04-12T08:16:55.245Z,969.28
2018-04-12T08:17:55.442Z,969.33
2018-04-12T08:18:55.638Z,969.30
2018-04-12T08:19:55.836Z,969.30
2018-04-12T08:20:56.035Z,969.27
2018-04-12T08:21:56.229Z,969.47
2018-04-12T08:22:56.433Z,969.35
2018-04-12T08:23:56.625Z,969.31
2018-04-12T08:24:56.823Z,969.28
2018-04-12T08:25:57.026Z,969.09
2018-04-12T08:26:57.218Z,969.18
2018-04-12T08:27:57.417Z,969.06
2018-04-12T08:28:57.614Z,969.18
2018-04-12T08:29:57.816Z,969.25
2018-04-12T08:30:58.012Z,969.13
2018-04-12T08:31:58.207Z,969.17
2018-04-12T08:32:58.405Z,969.21
2018-04-12T08:33:58.601Z,969.11
2018-04-12T08:34:58.803Z,969.07
2018-04-12T08:35:58.994Z,969.09
2018-04-12T08:36:59.192Z,969.06
2018-04-12T08:37:59.388Z,969.21
2018-04-12T08:38:59.584Z,969.16
2018-04-12T08:39:59.781Z,969.05
2018-04-12T08:40:59.978Z,969.14
2018-04-12T08:42:00.175Z,969.29
2018-04-12T08:43:00.370Z,969.38
2018-04-12T08:44:00.565Z,969.17
2018-04-12T08:45:00.763Z,969.22
2018-04-12T08:46:00.959Z,969.15
2018-04-12T08:47:01.156Z,969.14
2018-04-12T08:48:01.389Z,969.07
2018-04-12T08:49:01.549Z,969.17
2018-04-12T08:50:01.749Z,969.09
2018-04-12T08:51:01.945Z,969.14
2018-04-12T08:52:02.166Z,969.17
2018-04-12T08:53:02.337Z,969.07
2018-04-12T08:54:02.533Z,969.02
2018-04-12T08:55:02.730Z,969.05
2018-04-12T08:56:02.927Z,968.93
2018-04-12T08:57:03.124Z,968.96
2018-04-12T08:58:03.336Z,969.09
2018-04-12T08:59:03.624Z,969.09
2018-04-12T09:00:03.788Z,969.10
2018-04-12T09:01:03.873Z,969.12
2018-04-12T09:02:04.070Z,969.16
2018-04-12T09:03:04.263Z,969.16
2018-04-12T09:04:04.460Z,969.13
2018-04-12T09:05:04.659Z,969.13
2018-04-12T09:06:04.857Z,969.22
2018-04-12T09:07:05.052Z,969.05
2018-04-12T09:08:05.249Z,969.13
2018-04-12T09:09:05.447Z,969.21
2018-04-12T09:10:05.644Z,969.16
2018-04-12T09:11:05.839Z,969.18
2018-04-12T09:12:06.037Z,969.25
2018-04-12T09:13:06.236Z,969.00
2018-04-12T09:14:06.432Z,969.28
2018-04-12T09:15:06.629Z,969.06
2018-04-12T09:16:06.828Z,969.13
2018-04-12T09:17:07.027Z,969.16
2018-04-12T09:18:07.224Z,969.13
2018-04-12T09:19:07.421Z,969.06
2018-04-12T09:20:07.618Z,969.12
2018-04-12T09:21:07.815Z,969.09
2018-04-12T09:22:08.013Z,969.10
2018-04-12T09:23:08.209Z,969.17
2018-04-12T09:24:08.407Z,969.15
2018-04-12T09:25:08.608Z,969.12
2018-04-12T09:26:08.798Z,969.09
2018-04-12T09:27:08.993Z,969.00
2018-04-12T09:28:09.197Z,969.00
2018-04-12T09:29:09.389Z,969.06
2018-04-12T09:30:09.585Z,969.06
2018-04-12T09:31:09.783Z,968.99
2018-04-12T09:32:09.979Z,968.97
2018-04-12T09:33:10.174Z,969.00
2018-04-12T09:34:10.374Z,968.94
2018-04-12T09:35:10.570Z,968.88
2018-04-12T09:36:10.768Z,968.72
2018-04-12T09:37:10.963Z,968.85
2018-04-12T09:38:11.159Z,968.75
2018-04-12T09:39:11.359Z,968.78
2018-04-12T09:40:11.550Z,968.72
2018-04-12T09:41:11.746Z,968.79
2018-04-12T09:42:11.941Z,968.79
2018-04-12T09:43:12.135Z,968.85
2018-04-12T09:44:12.329Z,968.75
2018-04-12T09:45:12.523Z,968.79
2018-04-12T09:46:12.717Z,968.83
2018-04-12T09:47:12.908Z,968.92
2018-04-12T09:48:13.102Z,969.00
2018-04-12T09:49:13.307Z,968.92
2018-04-12T09:50:13.488Z,968.98
2018-04-12T09:51:13.682Z,968.94
2018-04-12T09:52:13.873Z,968.88
2018-04-12T09:53:14.067Z,968.72
2018-04-12T09:54:14.260Z,968.91
2018-04-12T09:55:14.453Z,968.90
2018-04-12T09:56:14.645Z,968.96
2018-04-12T09:57:14.840Z,968.90
2018-04-12T09:58:15.032Z,968.90
2018-04-12T09:59:15.225Z,968.95
2018-04-12T10:00:15.418Z,968.84
2018-04-12T10:01:15.613Z,968.87
2018-04-12T10:02:15.802Z,968.85
2018-04-12T10:03:15.999Z,968.93
2018-04-12T10:04:16.188Z,968.82
2018-04-12T10:05:16.380Z,968.85
2018-04-12T10:06:16.573Z,968.99
2018-04-12T10:07:16.767Z,968.87
2018-04-12T10:08:16.964Z,968.96
2018-04-12T10:09:17.151Z,968.84
2018-04-12T10:10:17.345Z,968.91
2018-04-12T10:11:17.538Z,968.86
2018-04-12T10:12:17.730Z,968.83
2018-04-12T10:13:17.922Z,968.82
2018-04-12T10:14:18.117Z,968.83
2018-04-12T10:15:18.310Z,968.82
2018-04-12T10:16:18.504Z,968.76
2018-04-12T10:17:18.696Z,968.71
2018-04-12T10:18:18.888Z,968.78
2018-04-12T10:19:19.080Z,968.68
2018-04-12T10:20:19.273Z,968.84
2018-04-12T10:21:19.467Z,968.67
2018-04-12T10:22:19.660Z,968.71
2018-04-12T10:23:19.852Z,968.79
2018-04-12T10:24:20.045Z,968.69
2018-04-12T10:25:20.237Z,968.75
2018-04-12T10:26:20.430Z,968.72
2018-04-12T10:27:20.622Z,968.76
2018-04-12T10:28:20.797Z,968.73
2018-04-12T10:29:20.990Z,968.85
2018-04-12T10:30:21.181Z,968.83
2018-04-12T10:31:21.373Z,968.83
2018-04-12T10:32:21.567Z,968.83
2018-04-12T10:33:21.758Z,968.87
2018-04-12T10:34:21.953Z,968.82
2018-04-12T10:35:22.145Z,968.88
2018-04-12T10:36:22.338Z,968.83
2018-04-12T10:37:22.530Z,968.85
2018-04-12T10:38:22.723Z,969.03
2018-04-12T10:39:22.932Z,968.99
2018-04-12T10:40:23.108Z,969.06
2018-04-12T10:41:23.301Z,969.01
2018-04-12T10:42:23.498Z,969.02
2018-04-12T10:43:23.685Z,969.07
2018-04-12T10:44:23.909Z,969.05
2018-04-12T10:45:24.077Z,969.08
2018-04-12T10:46:24.266Z,969.00
2018-04-12T10:47:24.459Z,969.03
2018-04-12T10:48:24.654Z,968.99
2018-04-12T10:49:24.852Z,968.98
2018-04-12T10:50:25.045Z,968.88
2018-04-12T10:51:25.236Z,968.84
2018-04-12T10:52:25.428Z,968.78
2018-04-12T10:53:25.627Z,968.73
2018-04-12T10:54:25.816Z,968.78
2018-04-12T10:55:26.015Z,968.77
2018-04-12T10:56:26.204Z,968.77
2018-04-12T10:57:26.397Z,968.67
2018-04-12T10:58:26.590Z,968.66
2018-04-12T10:59:26.840Z,968.64
2018-04-12T11:00:26.976Z,968.66
2018-04-12T11:01:27.170Z,968.74
2018-04-12T11:02:27.363Z,968.76
2018-04-12T11:03:27.623Z,968.86
2018-04-12T11:04:27.750Z,968.71
2018-04-12T11:05:27.943Z,968.78
2018-04-12T11:06:28.143Z,968.71
2018-04-12T11:07:28.331Z,968.67
2018-04-12T11:08:28.525Z,968.63
2018-04-12T11:09:28.720Z,968.60
2018-04-12T11:10:28.913Z,968.56
2018-04-12T11:11:29.108Z,968.56
2018-04-12T11:12:29.303Z,968.55
2018-04-12T11:13:29.495Z,968.50
2018-04-12T11:14:29.689Z,968.44
2018-04-12T11:15:29.882Z,968.43
2018-04-12T11:16:30.081Z,968.26
2018-04-12T11:17:30.269Z,968.36
2018-04-12T11:18:30.583Z,968.22
2018-04-12T11:19:30.657Z,968.18
2018-04-12T11:20:30.850Z,968.10
2018-04-12T11:21:31.043Z,968.13
2018-04-12T11:22:31.240Z,968.01
2018-04-12T11:23:31.452Z,968.13
2018-04-12T11:24:31.624Z,968.06
2018-04-12T11:25:31.818Z,968.14
2018-04-12T11:26:32.012Z,968.15
2018-04-12T11:27:32.203Z,968.25
2018-04-12T11:28:32.432Z,968.21
2018-04-12T11:29:32.588Z,968.17
2018-04-12T11:30:32.780Z,968.26
2018-04-12T11:31:33.009Z,968.22
2018-04-12T11:32:33.171Z,968.25
2018-04-12T11:33:33.361Z,968.29
2018-04-12T11:34:33.570Z,968.14
2018-04-12T11:35:33.748Z,968.18
2018-04-12T11:36:33.942Z,968.20
2018-04-12T11:37:34.135Z,968.26
2018-04-12T11:38:34.329Z,968.34
2018-04-12T11:39:34.522Z,968.32
2018-04-12T11:40:34.748Z,968.32
2018-04-12T11:41:34.909Z,968.33
2018-04-12T11:42:35.109Z,968.27
2018-04-12T11:43:35.294Z,968.38
2018-04-12T11:44:35.487Z,968.31
2018-04-12T11:45:35.677Z,968.34
2018-04-12T11:46:35.906Z,968.36
2018-04-12T11:47:36.065Z,968.32
2018-04-12T11:48:36.257Z,968.41
2018-04-12T11:49:36.456Z,968.39
2018-04-12T11:50:36.644Z,968.43
2018-04-12T11:51:36.840Z,968.40
2018-04-12T11:52:37.031Z,968.30
2018-04-12T11:53:37.221Z,968.30
2018-04-12T11:54:37.414Z,968.26
2018-04-12T11:55:37.608Z,968.26
2018-04-12T11:56:37.800Z,968.22
2018-04-12T11:57:37.993Z,968.22
2018-04-12T11:58:38.188Z,968.19
2018-04-12T11:59:38.380Z,968.27
2018-04-12T12:00:38.571Z,968.15
2018-04-12T12:01:38.806Z,967.96
2018-04-12T12:02:38.956Z,968.05
2018-04-12T12:03:39.151Z,968.10
2018-04-12T12:04:39.344Z,968.16
2018-04-12T12:05:39.537Z,968.11
2018-04-12T12:06:39.731Z,968.01
2018-04-12T12:07:39.924Z,968.09
2018-04-12T12:08:40.117Z,968.14
2018-04-12T12:09:40.309Z,968.04
2018-04-12T12:10:40.505Z,968.21
2018-04-12T12:11:40.697Z,968.21
2018-04-12T12:12:40.890Z,968.18
2018-04-12T12:13:41.084Z,968.15
2018-04-12T12:14:41.277Z,968.15
2018-04-12T12:15:41.471Z,968.19
2018-04-12T12:16:41.666Z,968.17
2018-04-12T12:17:41.899Z,968.13
2018-04-12T12:18:42.049Z,968.16
2018-04-12T12:19:42.240Z,968.17
2018-04-12T12:20:42.435Z,968.29
2018-04-12T12:21:42.630Z,968.10
2018-04-12T12:22:42.823Z,968.22
2018-04-12T12:23:43.045Z,968.16
2018-04-12T12:24:43.210Z,968.20
2018-04-12T12:25:43.405Z,968.22
2018-04-12T12:26:43.597Z,968.26
2018-04-12T12:27:43.791Z,968.29
2018-04-12T12:28:43.984Z,968.33
2018-04-12T12:29:44.180Z,968.34
2018-04-12T12:30:44.370Z,968.34